Hatfield, Wisconsin
Current Conditions -  °F | °C
As of 10:15 AM on Friday 24 Oct 2014 (Local Time) from KBCK Reporting Station
Haze Haze  
Wind Chill: 48°   Ceiling: 200
Heat Index: 50°   Visibility: 3mi
Dew Point: 50°   Wind: 5mph
Humidity: 100%   Direction: 160°SSE
Pressure: 29.99"   Gusts: NA
Location:  44.4455°N, 90.808°W
Report Text: KBCK 241515Z AUTO 16004KT 3SM BR OVC002 10/10 A2999 RMK AO2 T00980098
Loading
Personal Weather Stations






























Interactive Weather Map
Tropical Storm Tracking
New forecast layout! Learn more

10-Day Weather Forecast

Advertisements
Track Severe Weather on mobile